Time;durP1;ratioP1;P1;durP2;ratioP2;P2;SDS_P1;SDS_P2;PMS_P1;PMS_P2;Temp;Humidity;BMP_temperature;BMP_pressure;BME280_temperature;BME280_humidity;BME280_pressure;Samples;Min_cycle;Max_cycle;Signal;HPM_P1;HPM_P2
2021/09/10 00:04:46;;;;;;;3.28;2.10;;;;;;;;;;10323739;28;20080;-63
2021/09/10 00:09:46;;;;;;;11.13;3.40;;;;;;;;;;10324271;28;20498;-64
2021/09/10 00:14:45;;;;;;;4.15;2.05;;;;;;;;;;10323619;28;20052;-64
2021/09/10 00:19:43;;;;;;;6.35;2.97;;;;;;;;;;10323695;28;20433;-64
2021/09/10 00:24:41;;;;;;;10.43;3.20;;;;;;;;;;10323632;28;20083;-63
2021/09/10 00:29:42;;;;;;;4.80;2.55;;;;;;;;;;10323904;28;20037;-64
2021/09/10 00:34:40;;;;;;;5.93;2.67;;;;;;;;;;10323184;28;20053;-64
2021/09/10 00:39:38;;;;;;;4.07;2.40;;;;;;;;;;10323169;28;20040;-64
2021/09/10 00:44:37;;;;;;;5.13;2.00;;;;;;;;;;10322852;28;20041;-64
2021/09/10 00:49:37;;;;;;;16.08;2.95;;;;;;;;;;10320874;28;20056;-64
2021/09/10 00:54:35;;;;;;;6.07;2.63;;;;;;;;;;10322430;28;20064;-65
2021/09/10 00:59:33;;;;;;;5.32;2.80;;;;;;;;;;10322471;28;20056;-64
2021/09/10 01:04:32;;;;;;;7.13;2.40;;;;;;;;;;10321605;28;20091;-64
2021/09/10 01:09:32;;;;;;;8.30;2.13;;;;;;;;;;10321847;28;20146;-65
2021/09/10 01:14:30;;;;;;;7.55;2.88;;;;;;;;;;10320751;28;20548;-64
2021/09/10 01:19:30;;;;;;;5.50;2.55;;;;;;;;;;10321615;28;20060;-64
2021/09/10 01:24:30;;;;;;;10.32;2.38;;;;;;;;;;10321472;28;20047;-64
2021/09/10 01:29:29;;;;;;;6.40;2.42;;;;;;;;;;10321306;28;20432;-63
2021/09/10 01:34:27;;;;;;;3.65;2.60;;;;;;;;;;10320969;28;20044;-63
2021/09/10 01:39:25;;;;;;;8.43;2.95;;;;;;;;;;10320662;28;20053;-63
2021/09/10 01:44:25;;;;;;;4.13;2.10;;;;;;;;;;10320592;28;20051;-63
2021/09/10 01:49:24;;;;;;;4.97;2.67;;;;;;;;;;10320254;28;20076;-63
2021/09/10 01:54:22;;;;;;;3.97;2.50;;;;;;;;;;10319990;28;20083;-63
2021/09/10 01:59:20;;;;;;;5.88;2.80;;;;;;;;;;10319518;28;20087;-63
2021/09/10 02:04:21;;;;;;;6.32;2.28;;;;;;;;;;10319175;28;20059;-64
2021/09/10 02:09:19;;;;;;;7.10;3.20;;;;;;;;;;10351454;28;20059;-64
2021/09/10 02:14:17;;;;;;;9.15;2.75;;;;;;;;;;10320900;28;20478;-63
2021/09/10 02:19:16;;;;;;;4.53;2.67;;;;;;;;;;10318349;28;20501;-63
2021/09/10 02:24:15;;;;;;;6.93;3.00;;;;;;;;;;10317698;28;20518;-64
2021/09/10 02:29:14;;;;;;;4.63;2.83;;;;;;;;;;10318422;28;20083;-63
2021/09/10 02:34:12;;;;;;;5.68;2.50;;;;;;;;;;10336158;28;20447;-63
2021/09/10 02:39:12;;;;;;;4.15;2.42;;;;;;;;;;10333250;28;20517;-63
2021/09/10 02:44:11;;;;;;;8.05;2.78;;;;;;;;;;10318275;28;20470;-64
2021/09/10 02:49:10;;;;;;;8.38;2.90;;;;;;;;;;10317040;28;20102;-63
2021/09/10 02:54:08;;;;;;;8.40;3.08;;;;;;;;;;10317992;28;20036;-63
2021/09/10 02:59:07;;;;;;;7.15;2.83;;;;;;;;;;10316019;28;20497;-63
2021/09/10 03:04:08;;;;;;;9.45;2.67;;;;;;;;;;10317204;28;20057;-63
2021/09/10 03:09:07;;;;;;;8.02;2.88;;;;;;;;;;10317550;28;20080;-63
2021/09/10 03:14:05;;;;;;;11.32;3.03;;;;;;;;;;10316565;28;20041;-63
2021/09/10 03:19:03;;;;;;;6.07;2.40;;;;;;;;;;10317322;28;20048;-63
2021/09/10 03:24:03;;;;;;;5.93;2.60;;;;;;;;;;10317030;28;20410;-63
2021/09/10 03:29:01;;;;;;;7.43;2.80;;;;;;;;;;10317245;28;20515;-64
2021/09/10 03:34:00;;;;;;;15.85;2.97;;;;;;;;;;10317019;28;20055;-64
2021/09/10 03:38:58;;;;;;;10.75;5.25;;;;;;;;;;10324318;28;20072;-63
2021/09/10 03:43:58;;;;;;;4.43;3.20;;;;;;;;;;10325189;28;20072;-63
2021/09/10 03:48:56;;;;;;;10.43;3.38;;;;;;;;;;10324823;28;20091;-63
2021/09/10 03:53:54;;;;;;;6.07;3.78;;;;;;;;;;10324609;28;20076;-63
2021/09/10 03:58:53;;;;;;;4.95;2.63;;;;;;;;;;10324394;28;20044;-63
2021/09/10 04:03:53;;;;;;;6.57;4.72;;;;;;;;;;10323692;28;20429;-63
2021/09/10 04:08:52;;;;;;;10.68;3.33;;;;;;;;;;10323857;28;20493;-62
2021/09/10 04:13:51;;;;;;;7.10;3.45;;;;;;;;;;10323992;28;20056;-64
2021/09/10 04:18:50;;;;;;;10.07;4.15;;;;;;;;;;10323577;28;20091;-64
2021/09/10 04:23:49;;;;;;;8.05;2.72;;;;;;;;;;10323331;28;20080;-63
2021/09/10 04:28:48;;;;;;;8.85;4.45;;;;;;;;;;10323393;28;20071;-64
2021/09/10 04:33:47;;;;;;;9.68;6.53;;;;;;;;;;10322815;28;20080;-64
2021/09/10 04:38:45;;;;;;;5.32;4.57;;;;;;;;;;10322653;28;20067;-63
2021/09/10 04:43:45;;;;;;;9.40;3.90;;;;;;;;;;10322730;28;20044;-63
2021/09/10 04:48:43;;;;;;;8.13;4.38;;;;;;;;;;10322184;28;20496;-63
2021/09/10 04:53:42;;;;;;;11.70;4.15;;;;;;;;;;10320107;28;20076;-63
2021/09/10 04:58:40;;;;;;;9.93;4.72;;;;;;;;;;10317208;28;20095;-63
2021/09/10 05:03:40;;;;;;;15.07;3.40;;;;;;;;;;10314450;28;20125;-63
2021/09/10 05:08:38;;;;;;;6.85;4.45;;;;;;;;;;10314085;28;20072;-63
2021/09/10 05:13:37;;;;;;;7.25;3.45;;;;;;;;;;10319756;28;20076;-64
2021/09/10 05:18:35;;;;;;;10.35;3.90;;;;;;;;;;10320611;28;20131;-63
2021/09/10 05:23:35;;;;;;;12.40;4.43;;;;;;;;;;10320921;28;20048;-63
2021/09/10 05:28:33;;;;;;;11.52;4.68;;;;;;;;;;10320681;28;20080;-64
2021/09/10 05:33:31;;;;;;;15.57;6.15;;;;;;;;;;10320641;28;20071;-64
2021/09/10 05:38:31;;;;;;;16.95;5.97;;;;;;;;;;10319735;28;20049;-64
2021/09/10 05:43:30;;;;;;;8.10;4.10;;;;;;;;;;10327790;28;20040;-61
2021/09/10 05:48:29;;;;;;;10.25;3.60;;;;;;;;;;10322554;28;20410;-63
2021/09/10 05:53:29;;;;;;;13.73;4.25;;;;;;;;;;10319667;28;20044;-63
2021/09/10 05:58:28;;;;;;;6.05;4.05;;;;;;;;;;10319131;28;20047;-63
2021/09/10 06:03:27;;;;;;;9.40;2.83;;;;;;;;;;10319066;28;20060;-63
2021/09/10 06:08:27;;;;;;;5.53;3.22;;;;;;;;;;10322398;28;20090;-62
2021/09/10 06:13:25;;;;;;;8.13;3.33;;;;;;;;;;10323762;28;20037;-62
2021/09/10 06:18:24;;;;;;;8.75;3.65;;;;;;;;;;10319090;28;20075;-62
2021/09/10 06:23:24;;;;;;;7.22;3.22;;;;;;;;;;10318718;28;20044;-63
2021/09/10 06:28:22;;;;;;;12.20;2.90;;;;;;;;;;10318586;28;20076;-63
2021/09/10 06:33:20;;;;;;;14.07;3.78;;;;;;;;;;10317253;28;20045;-63
2021/09/10 06:38:18;;;;;;;6.63;3.25;;;;;;;;;;10318081;28;20425;-63
2021/09/10 06:43:18;;;;;;;7.65;3.08;;;;;;;;;;10317825;28;20048;-63
2021/09/10 06:48:16;;;;;;;13.70;3.42;;;;;;;;;;10317522;28;20075;-63
2021/09/10 06:53:15;;;;;;;10.30;5.03;;;;;;;;;;10316910;28;20040;-63
2021/09/10 06:58:13;;;;;;;12.07;4.35;;;;;;;;;;10317429;28;20044;-63
2021/09/10 07:03:13;;;;;;;15.13;6.25;;;;;;;;;;10316947;28;20064;-63
2021/09/10 07:08:13;;;;;;;14.02;4.93;;;;;;;;;;10317384;28;20502;-63
2021/09/10 07:13:12;;;;;;;10.98;4.18;;;;;;;;;;10316441;28;20075;-63
2021/09/10 07:18:12;;;;;;;15.95;7.00;;;;;;;;;;10317019;28;20524;-63
2021/09/10 07:23:11;;;;;;;15.30;7.18;;;;;;;;;;10316749;28;20041;-63
2021/09/10 07:28:09;;;;;;;10.38;4.10;;;;;;;;;;10316902;28;20524;-63
2021/09/10 07:33:07;;;;;;;18.15;6.03;;;;;;;;;;10316620;28;20048;-63
2021/09/10 07:38:07;;;;;;;15.65;3.92;;;;;;;;;;10316593;28;20414;-63
2021/09/10 07:43:05;;;;;;;12.25;4.43;;;;;;;;;;10316519;28;20040;-63
2021/09/10 07:48:04;;;;;;;10.45;5.10;;;;;;;;;;10316140;28;20075;-63
2021/09/10 07:53:03;;;;;;;9.02;5.07;;;;;;;;;;10316197;28;20051;-63
2021/09/10 07:58:02;;;;;;;10.80;4.50;;;;;;;;;;10316281;28;20053;-63
2021/09/10 08:03:01;;;;;;;8.15;3.88;;;;;;;;;;10315877;28;20083;-63
2021/09/10 08:07:59;;;;;;;8.75;4.30;;;;;;;;;;10315358;28;20523;-63
2021/09/10 08:12:58;;;;;;;7.43;3.50;;;;;;;;;;10315996;28;20301;-64
2021/09/10 08:17:57;;;;;;;5.88;3.15;;;;;;;;;;10315803;28;20049;-63
2021/09/10 08:22:57;;;;;;;7.68;3.13;;;;;;;;;;10318812;28;20051;-64
2021/09/10 08:27:55;;;;;;;4.30;3.10;;;;;;;;;;10322807;28;20501;-63
2021/09/10 08:32:55;;;;;;;9.90;5.88;;;;;;;;;;10322875;28;20564;-64
2021/09/10 08:38:06;;;;;;;11.77;4.47;;;;;;;;;;10322161;28;20493;-64
2021/09/10 08:43:05;;;;;;;9.32;3.80;;;;;;;;;;10322820;28;20072;-63
2021/09/10 08:48:03;;;;;;;16.30;11.32;;;;;;;;;;10322095;28;20080;-64
2021/09/10 08:53:01;;;;;;;5.65;3.90;;;;;;;;;;10322462;28;20044;-64
2021/09/10 08:58:01;;;;;;;5.38;4.10;;;;;;;;;;10322058;28;20064;-64
2021/09/10 09:03:00;;;;;;;6.70;4.13;;;;;;;;;;10321570;28;20068;-64
2021/09/10 09:08:09;;;;;;;5.15;2.78;;;;;;;;;;10321629;28;20075;-64
2021/09/10 09:13:13;;;;;;;7.40;2.60;;;;;;;;;;10321440;28;20044;-64
2021/09/10 09:18:12;;;;;;;7.33;4.30;;;;;;;;;;10323675;28;20438;-63
2021/09/10 09:23:11;;;;;;;7.80;2.70;;;;;;;;;;10321799;28;20040;-63
2021/09/10 09:28:17;;;;;;;7.10;3.00;;;;;;;;;;10320860;28;20080;-63
2021/09/10 09:33:17;;;;;;;5.40;2.90;;;;;;;;;;10319659;28;20049;-63
2021/09/10 09:38:17;;;;;;;8.15;3.22;;;;;;;;;;10320789;28;20055;-64
2021/09/10 09:43:18;;;;;;;4.97;3.65;;;;;;;;;;10321784;28;20135;-63
2021/09/10 09:48:17;;;;;;;7.53;2.38;;;;;;;;;;10323238;28;20044;-63
2021/09/10 09:53:15;;;;;;;9.15;3.00;;;;;;;;;;10320096;28;20044;-63
2021/09/10 09:58:14;;;;;;;5.80;2.67;;;;;;;;;;10319457;28;20053;-63
2021/09/10 10:03:14;;;;;;;4.82;3.03;;;;;;;;;;10319007;28;20057;-63
2021/09/10 10:08:17;;;;;;;6.72;3.60;;;;;;;;;;10319375;28;20355;-65
2021/09/10 10:13:21;;;;;;;12.05;2.92;;;;;;;;;;10318914;28;20076;-64
2021/09/10 10:18:37;;;;;;;3.97;3.22;;;;;;;;;;10318964;28;20040;-64
2021/09/10 10:24:05;;;;;;;11.45;3.15;;;;;;;;;;10318606;28;20111;-64
2021/09/10 10:29:05;;;;;;;4.57;3.30;;;;;;;;;;10318850;28;20079;-64
2021/09/10 10:34:05;;;;;;;11.35;3.40;;;;;;;;;;10318575;28;20079;-64
2021/09/10 10:39:18;;;;;;;6.13;2.65;;;;;;;;;;10317655;28;20082;-63
2021/09/10 10:44:35;;;;;;;10.18;3.22;;;;;;;;;;10317907;28;20040;-63
2021/09/10 10:49:35;;;;;;;11.60;3.45;;;;;;;;;;10318087;28;20080;-62
2021/09/10 10:54:33;;;;;;;12.48;2.90;;;;;;;;;;10317284;28;20070;-63
2021/09/10 10:59:32;;;;;;;8.15;3.20;;;;;;;;;;10317874;28;20048;-63
2021/09/10 11:04:39;;;;;;;14.68;6.25;;;;;;;;;;10317715;28;20059;-64
2021/09/10 11:09:39;;;;;;;9.45;3.60;;;;;;;;;;10316617;28;20083;-64
2021/09/10 11:14:41;;;;;;;10.32;3.30;;;;;;;;;;10317382;28;20045;-64
2021/09/10 11:19:44;;;;;;;6.40;3.10;;;;;;;;;;10317455;28;20505;-64
2021/09/10 11:24:44;;;;;;;8.70;3.93;;;;;;;;;;10317361;28;20053;-63
2021/09/10 11:29:42;;;;;;;8.63;4.90;;;;;;;;;;10317269;28;20079;-63
2021/09/10 11:34:41;;;;;;;11.85;3.25;;;;;;;;;;10317233;28;20044;-63
2021/09/10 11:39:45;;;;;;;10.18;3.72;;;;;;;;;;10317015;28;20040;-63
2021/09/10 11:45:05;;;;;;;13.93;3.03;;;;;;;;;;10316785;28;20521;-63
2021/09/10 11:50:08;;;;;;;6.80;3.13;;;;;;;;;;10316747;28;20090;-64
2021/09/10 11:55:12;;;;;;;8.38;2.83;;;;;;;;;;10316977;28;20040;-64
2021/09/10 12:00:10;;;;;;;;;;;;;;;;;;10324854;28;20037;-64
2021/09/10 12:05:13;;;;;;;5.20;3.03;;;;;;;;;;10324746;28;19952;-64
2021/09/10 12:10:27;;;;;;;8.45;4.22;;;;;;;;;;10321957;28;20457;-64
2021/09/10 12:15:29;;;;;;;4.03;2.80;;;;;;;;;;10324036;28;20506;-64
2021/09/10 12:20:30;;;;;;;10.05;3.45;;;;;;;;;;10323319;28;20075;-63
2021/09/10 12:25:35;;;;;;;7.20;3.65;;;;;;;;;;10322870;28;20048;-64
2021/09/10 12:30:36;;;;;;;9.13;3.08;;;;;;;;;;10322508;28;20076;-63
2021/09/10 12:35:35;;;;;;;10.10;3.03;;;;;;;;;;10322856;28;20075;-64
2021/09/10 12:40:37;;;;;;;11.70;3.50;;;;;;;;;;10322377;28;20048;-63
2021/09/10 12:45:37;;;;;;;4.75;3.40;;;;;;;;;;10321954;28;20060;-63
2021/09/10 12:50:36;;;;;;;7.88;3.50;;;;;;;;;;10321711;28;20044;-64
2021/09/10 12:55:37;;;;;;;8.45;3.22;;;;;;;;;;10325132;28;20052;-64
2021/09/10 13:00:38;;;;;;;9.05;3.60;;;;;;;;;;10321562;28;20310;-63
2021/09/10 13:05:37;;;;;;;6.25;3.28;;;;;;;;;;10321307;28;20060;-63
2021/09/10 13:10:37;;;;;;;7.03;3.08;;;;;;;;;;10321207;28;20084;-63
2021/09/10 13:15:50;;;;;;;;;;;;;;;;;;10321459;28;20041;-64
2021/09/10 13:20:49;;;;;;;8.85;2.75;;;;;;;;;;10322196;28;19928;-64
2021/09/10 13:25:50;;;;;;;7.38;3.03;;;;;;;;;;10320827;28;20076;-64
2021/09/10 13:30:49;;;;;;;11.93;3.20;;;;;;;;;;10320244;28;20517;-63
2021/09/10 13:35:49;;;;;;;6.57;3.38;;;;;;;;;;10319814;28;20052;-63
2021/09/10 13:40:48;;;;;;;10.35;3.05;;;;;;;;;;10320663;28;20430;-64
2021/09/10 13:45:46;;;;;;;5.07;2.95;;;;;;;;;;10319558;28;20040;-63
2021/09/10 13:50:46;;;;;;;11.23;3.20;;;;;;;;;;10319259;28;20490;-63
2021/09/10 13:55:46;;;;;;;12.02;3.10;;;;;;;;;;10319687;28;20513;-63
2021/09/10 14:00:47;;;;;;;10.65;4.00;;;;;;;;;;10318936;28;20517;-63
2021/09/10 14:05:45;;;;;;;7.75;3.90;;;;;;;;;;10319228;28;20056;-63
2021/09/10 14:10:43;;;;;;;8.52;3.40;;;;;;;;;;10318949;28;20091;-63
2021/09/10 14:15:44;;;;;;;6.15;3.78;;;;;;;;;;10318411;28;20505;-63
2021/09/10 14:20:44;;;;;;;11.93;6.05;;;;;;;;;;10318257;28;20052;-64
2021/09/10 14:25:44;;;;;;;7.68;4.68;;;;;;;;;;10318307;28;20417;-64
2021/09/10 14:30:42;;;;;;;8.25;4.50;;;;;;;;;;10318535;28;20493;-63
2021/09/10 14:35:41;;;;;;;4.38;3.50;;;;;;;;;;10317491;28;20053;-64
2021/09/10 14:40:41;;;;;;;14.07;5.18;;;;;;;;;;10317317;28;20067;-64
2021/09/10 14:45:39;;;;;;;7.22;4.00;;;;;;;;;;10317860;28;20505;-64
2021/09/10 14:50:37;;;;;;;12.45;5.72;;;;;;;;;;10317490;28;20086;-65
2021/09/10 14:55:36;;;;;;;6.60;3.63;;;;;;;;;;10316807;28;20480;-63
2021/09/10 15:00:35;;;;;;;13.65;10.38;;;;;;;;;;10317235;28;20064;-63
2021/09/10 15:05:34;;;;;;;10.85;4.82;;;;;;;;;;10316444;28;20044;-64
2021/09/10 15:10:32;;;;;;;14.15;5.75;;;;;;;;;;10316323;28;20072;-64
2021/09/10 15:15:31;;;;;;;17.85;7.90;;;;;;;;;;10316587;28;20051;-63
2021/09/10 15:20:31;;;;;;;10.32;4.47;;;;;;;;;;10316474;28;20072;-63
2021/09/10 15:25:29;;;;;;;10.77;4.10;;;;;;;;;;10316380;28;20051;-64
2021/09/10 15:30:31;;;;;;;8.02;4.38;;;;;;;;;;10315263;28;20072;-64
2021/09/10 15:35:31;;;;;;;9.60;4.85;;;;;;;;;;10316375;28;20055;-65
2021/09/10 15:40:29;;;;;;;17.05;5.30;;;;;;;;;;10316053;28;20045;-64
2021/09/10 15:45:28;;;;;;;9.55;3.72;;;;;;;;;;10316880;28;20041;-64
2021/09/10 15:50:26;;;;;;;11.05;5.68;;;;;;;;;;10316907;28;20041;-63
2021/09/10 15:55:26;;;;;;;17.77;6.88;;;;;;;;;;10315685;28;20494;-63
2021/09/10 16:00:25;;;;;;;13.80;7.47;;;;;;;;;;10316726;28;20059;-63
2021/09/10 16:05:24;;;;;;;12.75;9.50;;;;;;;;;;10316002;28;20061;-64
2021/09/10 16:10:23;;;;;;;19.08;8.73;;;;;;;;;;10315422;28;20433;-64
2021/09/10 16:15:24;;;;;;;14.93;7.20;;;;;;;;;;10316263;28;20417;-64
2021/09/10 16:20:22;;;;;;;16.00;7.65;;;;;;;;;;10316171;28;20059;-64
2021/09/10 16:25:21;;;;;;;6.97;4.78;;;;;;;;;;10316109;28;20044;-64
2021/09/10 16:30:20;;;;;;;11.60;5.60;;;;;;;;;;10323690;28;20044;-64
2021/09/10 16:35:21;;;;;;;24.20;13.43;;;;;;;;;;10316161;28;20050;-64
2021/09/10 16:40:20;;;;;;;12.65;5.78;;;;;;;;;;10316013;28;20048;-64
2021/09/10 16:45:19;;;;;;;12.43;5.40;;;;;;;;;;10321291;28;20055;-65
2021/09/10 16:50:17;;;;;;;11.85;4.70;;;;;;;;;;10322684;28;20418;-65
2021/09/10 16:55:17;;;;;;;12.32;4.32;;;;;;;;;;10325059;28;20071;-65
2021/09/10 17:00:15;;;;;;;11.63;5.20;;;;;;;;;;10324670;28;20434;-65
2021/09/10 17:05:14;;;;;;;14.38;4.55;;;;;;;;;;10321698;28;20087;-63
2021/09/10 17:10:13;;;;;;;14.25;4.63;;;;;;;;;;10321983;28;20044;-63
2021/09/10 17:15:12;;;;;;;9.75;4.97;;;;;;;;;;10321870;28;20075;-64
2021/09/10 17:20:12;;;;;;;13.07;4.00;;;;;;;;;;10321820;28;20044;-64
2021/09/10 17:25:10;;;;;;;8.23;4.60;;;;;;;;;;10320411;28;20072;-63
2021/09/10 17:30:09;;;;;;;8.85;4.70;;;;;;;;;;10321058;28;20064;-63
2021/09/10 17:35:09;;;;;;;10.68;4.90;;;;;;;;;;10320995;28;20497;-63
2021/09/10 17:40:08;;;;;;;9.68;5.88;;;;;;;;;;10320626;28;20045;-62
2021/09/10 17:45:06;;;;;;;10.80;5.05;;;;;;;;;;10320538;28;20041;-62
2021/09/10 17:50:05;;;;;;;16.15;5.18;;;;;;;;;;10319782;28;20044;-64
2021/09/10 17:55:06;;;;;;;10.50;5.88;;;;;;;;;;10319506;28;20548;-65
2021/09/10 18:00:05;;;;;;;18.27;5.93;;;;;;;;;;10282373;28;20049;-65
2021/09/10 18:05:04;;;;;;;12.55;4.15;;;;;;;;;;10278556;28;20514;-64
2021/09/10 18:10:03;;;;;;;13.93;5.10;;;;;;;;;;10277983;28;20523;-65
2021/09/10 18:15:03;;;;;;;6.10;3.85;;;;;;;;;;10278862;28;20077;-64
2021/09/10 18:20:02;;;;;;;7.63;3.47;;;;;;;;;;10279151;28;20037;-64
2021/09/10 18:25:00;;;;;;;10.60;4.85;;;;;;;;;;10277220;28;20498;-64
2021/09/10 18:29:58;;;;;;;10.48;4.57;;;;;;;;;;10278166;28;20532;-64
2021/09/10 18:34:58;;;;;;;8.35;4.22;;;;;;;;;;10277930;28;20501;-64
2021/09/10 18:39:56;;;;;;;12.60;4.82;;;;;;;;;;10276830;28;20048;-64
2021/09/10 18:44:54;;;;;;;9.77;3.92;;;;;;;;;;10277658;28;20064;-64
2021/09/10 18:49:53;;;;;;;16.10;4.18;;;;;;;;;;10277586;28;20057;-64
2021/09/10 18:54:53;;;;;;;7.53;4.22;;;;;;;;;;10275974;28;20072;-64
2021/09/10 18:59:51;;;;;;;7.60;5.03;;;;;;;;;;10277419;28;20053;-64
2021/09/10 19:04:49;;;;;;;8.90;5.03;;;;;;;;;;10275989;28;20087;-65
2021/09/10 19:09:50;;;;;;;7.82;3.90;;;;;;;;;;10276965;28;20045;-65
2021/09/10 19:14:50;;;;;;;10.23;4.00;;;;;;;;;;10276673;28;20087;-64
2021/09/10 19:19:49;;;;;;;9.85;4.82;;;;;;;;;;10276803;28;20040;-64
2021/09/10 19:24:47;;;;;;;6.75;4.10;;;;;;;;;;10276881;28;20596;-64
2021/09/10 19:29:46;;;;;;;13.77;4.65;;;;;;;;;;10277105;28;20407;-64
2021/09/10 19:34:45;;;;;;;8.77;3.47;;;;;;;;;;10275801;28;20537;-63
2021/09/10 19:39:44;;;;;;;9.02;3.53;;;;;;;;;;10276193;28;20052;-64
2021/09/10 19:44:43;;;;;;;11.45;3.33;;;;;;;;;;10276254;28;20060;-64
2021/09/10 19:49:42;;;;;;;10.98;3.55;;;;;;;;;;10276209;28;20049;-65
2021/09/10 19:54:41;;;;;;;6.85;3.65;;;;;;;;;;10276114;28;20462;-65
2021/09/10 19:59:41;;;;;;;10.65;3.63;;;;;;;;;;10276134;28;20064;-65
2021/09/10 20:04:39;;;;;;;13.65;4.30;;;;;;;;;;10278187;28;20064;-65
2021/09/10 20:09:38;;;;;;;7.65;4.00;;;;;;;;;;10292746;28;20490;-65
2021/09/10 20:14:37;;;;;;;9.18;3.65;;;;;;;;;;10275789;28;20099;-65
2021/09/10 20:19:37;;;;;;;9.77;3.80;;;;;;;;;;10280961;28;20140;-65
2021/09/10 20:24:35;;;;;;;12.63;4.05;;;;;;;;;;10283234;28;20037;-65
2021/09/10 20:29:34;;;;;;;10.50;3.70;;;;;;;;;;10283281;28;20048;-65
2021/09/10 20:34:33;;;;;;;11.18;3.95;;;;;;;;;;10297158;28;20087;-65
2021/09/10 20:39:33;;;;;;;9.52;4.07;;;;;;;;;;10287111;28;20549;-63
2021/09/10 20:44:32;;;;;;;9.55;4.18;;;;;;;;;;10281027;28;20056;-63
2021/09/10 20:49:31;;;;;;;8.52;4.05;;;;;;;;;;10282202;28;20052;-65
2021/09/10 20:54:31;;;;;;;8.63;4.45;;;;;;;;;;10281046;28;20087;-63
2021/09/10 20:59:30;;;;;;;11.20;4.45;;;;;;;;;;10280500;28;20045;-64
2021/09/10 21:04:28;;;;;;;11.00;4.20;;;;;;;;;;10280974;28;20063;-64
2021/09/10 21:09:27;;;;;;;12.55;4.88;;;;;;;;;;10280510;28;20609;-64
2021/09/10 21:14:27;;;;;;;8.70;4.78;;;;;;;;;;10281377;28;20072;-64
2021/09/10 21:19:25;;;;;;;6.57;3.75;;;;;;;;;;10280265;28;20459;-64
2021/09/10 21:24:23;;;;;;;16.48;3.88;;;;;;;;;;10280968;28;20056;-64
2021/09/10 21:29:21;;;;;;;10.50;4.22;;;;;;;;;;10278641;28;20080;-64
2021/09/10 21:34:21;;;;;;;12.27;4.93;;;;;;;;;;10279390;28;20202;-64
2021/09/10 21:39:20;;;;;;;12.65;4.78;;;;;;;;;;10280244;28;20048;-64
2021/09/10 21:44:18;;;;;;;13.57;3.70;;;;;;;;;;10280124;28;20415;-63
2021/09/10 21:49:17;;;;;;;7.22;3.25;;;;;;;;;;10280115;28;20049;-63
2021/09/10 21:54:17;;;;;;;7.75;3.72;;;;;;;;;;10279998;28;20096;-64
2021/09/10 21:59:16;;;;;;;10.98;3.95;;;;;;;;;;10279478;28;20049;-63
2021/09/10 22:04:14;;;;;;;9.15;4.72;;;;;;;;;;10277002;28;20099;-64
2021/09/10 22:09:12;;;;;;;9.32;3.90;;;;;;;;;;10279166;28;20053;-65
2021/09/10 22:14:12;;;;;;;10.52;3.55;;;;;;;;;;10278949;28;20072;-64
2021/09/10 22:19:10;;;;;;;8.98;3.33;;;;;;;;;;10278892;28;20068;-64
2021/09/10 22:24:09;;;;;;;11.07;3.28;;;;;;;;;;10277892;28;20037;-64
2021/09/10 22:29:07;;;;;;;8.55;3.55;;;;;;;;;;10278494;28;20049;-64
2021/09/10 22:34:07;;;;;;;8.18;3.60;;;;;;;;;;10277583;28;20076;-64
2021/09/10 22:39:05;;;;;;;15.00;4.38;;;;;;;;;;10277317;28;20045;-65
2021/09/10 22:44:04;;;;;;;6.18;3.20;;;;;;;;;;10277270;28;20501;-65
2021/09/10 22:49:03;;;;;;;7.97;3.58;;;;;;;;;;10277615;28;20044;-64
2021/09/10 22:54:02;;;;;;;6.97;3.58;;;;;;;;;;10276693;28;20077;-64
2021/09/10 22:59:00;;;;;;;13.35;3.35;;;;;;;;;;10277416;28;20509;-65
2021/09/10 23:03:59;;;;;;;5.80;3.30;;;;;;;;;;10276579;28;20080;-64
2021/09/10 23:08:57;;;;;;;8.10;4.28;;;;;;;;;;10276382;28;20506;-64
2021/09/10 23:13:57;;;;;;;8.05;3.45;;;;;;;;;;10277142;28;20080;-64
2021/09/10 23:18:56;;;;;;;5.32;3.58;;;;;;;;;;10276886;28;20076;-65
2021/09/10 23:23:54;;;;;;;10.82;4.50;;;;;;;;;;10275392;28;20045;-64
2021/09/10 23:28:52;;;;;;;7.63;3.33;;;;;;;;;;10276410;28;20041;-64
2021/09/10 23:33:52;;;;;;;11.00;3.90;;;;;;;;;;10276297;28;20497;-64
2021/09/10 23:38:51;;;;;;;7.70;3.33;;;;;;;;;;10274771;28;20057;-63
2021/09/10 23:43:49;;;;;;;8.52;3.60;;;;;;;;;;10274587;28;20049;-64
2021/09/10 23:48:48;;;;;;;10.63;3.80;;;;;;;;;;10300174;28;20063;-64
2021/09/10 23:53:47;;;;;;;13.82;3.38;;;;;;;;;;10280417;28;20081;-64
2021/09/10 23:58:46;;;;;;;15.98;4.32;;;;;;;;;;10284347;28;20045;-64
